createdAt,value
2023-04-27T00:01:47.960Z,77.64
2023-04-27T00:03:51.666Z,78.40
2023-04-27T00:05:54.067Z,78.18
2023-04-27T00:07:55.963Z,79.27
2023-04-27T00:09:58.032Z,78.59
2023-04-27T00:11:59.837Z,77.61
2023-04-27T00:14:02.280Z,77.80
2023-04-27T00:16:04.380Z,78.14
2023-04-27T00:18:06.678Z,78.62
2023-04-27T00:20:11.687Z,78.17
2023-04-27T00:22:13.864Z,77.90
2023-04-27T00:24:15.469Z,77.47
2023-04-27T00:26:17.358Z,77.08
2023-04-27T00:28:22.753Z,75.96
2023-04-27T00:30:24.329Z,75.88
2023-04-27T00:32:25.905Z,74.95
2023-04-27T00:34:27.510Z,75.38
2023-04-27T00:36:29.023Z,75.80
2023-04-27T00:38:30.738Z,75.96
2023-04-27T00:40:33.428Z,75.60
2023-04-27T00:42:35.948Z,75.68
2023-04-27T00:44:39.280Z,76.08
2023-04-27T00:46:41.396Z,75.36
2023-04-27T00:48:44.252Z,75.16
2023-04-27T00:50:46.015Z,75.55
2023-04-27T00:52:48.679Z,77.18
2023-04-27T00:54:52.062Z,76.52
2023-04-27T00:56:55.538Z,76.79
2023-04-27T00:58:57.511Z,76.71
2023-04-27T01:01:00.342Z,75.70
2023-04-27T01:03:04.013Z,75.22
2023-04-27T01:05:07.112Z,75.00
2023-04-27T01:07:08.674Z,73.87
2023-04-27T01:09:11.023Z,74.11
2023-04-27T01:11:12.647Z,73.70
2023-04-27T01:13:14.150Z,74.72
2023-04-27T01:15:15.672Z,73.74
2023-04-27T01:17:18.269Z,73.78
2023-04-27T01:19:19.930Z,74.47
2023-04-27T01:21:21.650Z,74.00
2023-04-27T01:23:23.694Z,74.10
2023-04-27T01:25:25.503Z,74.81
2023-04-27T01:27:27.018Z,74.77
2023-04-27T01:29:29.330Z,75.17
2023-04-27T01:31:31.261Z,75.19
2023-04-27T01:33:32.852Z,75.54
2023-04-27T01:35:34.554Z,75.43
2023-04-27T01:37:36.168Z,75.47
2023-04-27T01:39:38.048Z,75.36
2023-04-27T01:41:39.589Z,75.82
2023-04-27T01:43:42.478Z,75.59
2023-04-27T01:45:43.985Z,76.15
2023-04-27T01:47:45.551Z,75.87
2023-04-27T01:49:47.119Z,75.96
2023-04-27T01:51:48.613Z,76.73
2023-04-27T01:53:51.302Z,78.01
2023-04-27T01:55:52.950Z,77.12
2023-04-27T01:57:54.470Z,76.42
2023-04-27T01:59:56.787Z,76.67
2023-04-27T02:01:58.380Z,75.24
2023-04-27T02:04:00.848Z,75.00
2023-04-27T02:06:04.354Z,75.61
2023-04-27T02:08:06.230Z,76.07
2023-04-27T02:10:08.213Z,75.58
2023-04-27T02:12:09.810Z,77.47
2023-04-27T02:14:11.392Z,77.12
2023-04-27T02:16:13.594Z,78.13
2023-04-27T02:18:15.642Z,78.60
2023-04-27T02:20:17.202Z,79.13
2023-04-27T02:22:18.858Z,78.51
2023-04-27T02:24:20.496Z,77.99
2023-04-27T02:26:23.853Z,78.43
2023-04-27T02:28:25.524Z,79.47
2023-04-27T02:30:28.493Z,80.75
2023-04-27T02:32:33.159Z,80.83
2023-04-27T02:34:35.099Z,81.67
2023-04-27T02:36:36.869Z,81.77
2023-04-27T02:38:38.436Z,81.19
2023-04-27T02:40:40.007Z,83.09
2023-04-27T02:42:41.505Z,82.14
2023-04-27T02:44:46.016Z,81.92
2023-04-27T02:46:47.585Z,81.96
2023-04-27T02:48:49.137Z,81.48
2023-04-27T02:50:50.946Z,81.05
2023-04-27T02:52:52.639Z,80.27
2023-04-27T02:54:54.220Z,79.76
2023-04-27T02:56:56.139Z,80.35
2023-04-27T02:58:57.626Z,80.92
2023-04-27T03:00:59.167Z,80.89
2023-04-27T03:03:00.918Z,80.63
2023-04-27T03:05:03.535Z,80.63
2023-04-27T03:07:05.060Z,80.29
2023-04-27T03:09:07.032Z,80.33
2023-04-27T03:11:09.398Z,79.98
2023-04-27T03:13:11.658Z,80.76
2023-04-27T03:15:13.198Z,80.01
2023-04-27T03:17:14.717Z,79.19
2023-04-27T03:19:16.608Z,79.40
2023-04-27T03:21:18.185Z,80.66
2023-04-27T03:23:19.687Z,81.35
2023-04-27T03:25:21.753Z,82.11
2023-04-27T03:27:23.266Z,81.52
2023-04-27T03:29:26.113Z,81.88
2023-04-27T03:31:27.889Z,81.93
2023-04-27T03:33:30.222Z,80.95
2023-04-27T03:35:31.688Z,80.06
2023-04-27T03:37:34.209Z,79.15
2023-04-27T03:39:35.940Z,78.60
2023-04-27T03:41:37.899Z,78.72
2023-04-27T03:43:39.470Z,79.52
2023-04-27T03:45:41.278Z,79.54
2023-04-27T03:47:42.841Z,79.60
2023-04-27T03:49:44.410Z,79.39
2023-04-27T03:51:46.074Z,80.14
2023-04-27T03:53:47.636Z,81.77
2023-04-27T03:55:49.356Z,82.34
2023-04-27T03:57:51.689Z,82.89
2023-04-27T03:59:53.185Z,82.23
2023-04-27T04:01:54.766Z,81.57
2023-04-27T04:03:56.535Z,81.69
2023-04-27T04:05:58.325Z,81.82
2023-04-27T04:08:00.521Z,82.04
2023-04-27T04:10:03.282Z,82.21
2023-04-27T04:12:05.411Z,81.63
2023-04-27T04:14:07.017Z,81.39
2023-04-27T04:16:10.075Z,81.67
2023-04-27T04:18:12.464Z,81.86
2023-04-27T04:20:14.055Z,82.27
2023-04-27T04:22:15.620Z,81.53
2023-04-27T04:24:17.121Z,80.79
2023-04-27T04:26:18.654Z,80.23
2023-04-27T04:28:20.152Z,80.17
2023-04-27T04:30:23.157Z,80.58
2023-04-27T04:32:25.145Z,81.53
2023-04-27T04:34:27.206Z,82.27
2023-04-27T04:36:29.209Z,82.44
2023-04-27T04:38:31.074Z,82.49
2023-04-27T04:40:32.986Z,82.21
2023-04-27T04:42:36.916Z,82.78
2023-04-27T04:44:38.977Z,82.98
2023-04-27T04:46:41.005Z,83.41
2023-04-27T04:48:42.582Z,83.04
2023-04-27T04:50:44.112Z,83.03
2023-04-27T04:52:47.410Z,83.92
2023-04-27T04:54:53.270Z,84.31
2023-04-27T04:56:56.064Z,82.95
2023-04-27T04:59:00.663Z,81.50
2023-04-27T05:01:02.238Z,81.62
2023-04-27T05:03:04.007Z,81.93
2023-04-27T05:05:06.906Z,80.88
2023-04-27T05:07:08.761Z,80.34
2023-04-27T05:09:10.604Z,79.91
2023-04-27T05:11:12.312Z,80.34
2023-04-27T05:13:13.827Z,80.10
2023-04-27T05:15:15.906Z,80.58
2023-04-27T05:17:17.400Z,79.89
2023-04-27T05:19:20.568Z,79.14
2023-04-27T05:21:22.173Z,80.04
2023-04-27T05:23:23.690Z,79.67
2023-04-27T05:25:25.456Z,79.67
2023-04-27T05:27:26.993Z,78.79
2023-04-27T05:29:28.611Z,78.35
2023-04-27T05:31:30.582Z,78.43
2023-04-27T05:33:32.146Z,78.19
2023-04-27T05:35:34.302Z,77.86
2023-04-27T05:37:35.982Z,77.20
2023-04-27T05:39:37.528Z,78.12
2023-04-27T05:41:39.681Z,78.45
2023-04-27T05:43:41.610Z,79.29
2023-04-27T05:45:43.900Z,79.40
2023-04-27T05:47:45.854Z,79.22
2023-04-27T05:49:52.159Z,80.91
2023-04-27T05:51:53.715Z,80.19
2023-04-27T05:53:55.554Z,79.21
2023-04-27T05:55:59.080Z,78.15
2023-04-27T05:58:08.642Z,77.64
2023-04-27T06:00:12.155Z,76.29
2023-04-27T06:02:16.981Z,75.36
2023-04-27T06:04:18.709Z,75.78
2023-04-27T06:06:21.185Z,74.60
2023-04-27T06:08:23.146Z,72.35
2023-04-27T06:10:24.716Z,70.84
2023-04-27T06:12:26.378Z,68.32
2023-04-27T06:14:28.668Z,67.80
2023-04-27T06:16:30.414Z,63.78
2023-04-27T06:18:31.940Z,62.58
2023-04-27T06:20:33.463Z,65.64
2023-04-27T06:22:38.745Z,64.31
2023-04-27T06:24:42.270Z,62.86
2023-04-27T06:26:43.848Z,61.91
2023-04-27T06:28:45.397Z,62.07
2023-04-27T06:30:47.182Z,63.03
2023-04-27T06:32:49.470Z,60.25
2023-04-27T06:34:51.045Z,58.91
2023-04-27T06:36:53.039Z,58.12
2023-04-27T06:38:56.376Z,55.79
2023-04-27T06:40:58.257Z,57.46
2023-04-27T06:43:00.149Z,56.58
2023-04-27T06:45:02.020Z,56.74
2023-04-27T06:47:03.849Z,56.28
2023-04-27T06:49:05.829Z,56.62
2023-04-27T06:51:07.841Z,55.89
2023-04-27T06:53:10.245Z,53.55
2023-04-27T06:55:11.787Z,51.24
2023-04-27T06:57:13.475Z,52.32
2023-04-27T06:59:15.240Z,52.22
2023-04-27T07:01:17.073Z,51.76
2023-04-27T07:03:19.042Z,51.34
2023-04-27T07:05:21.036Z,51.13
2023-04-27T07:07:22.555Z,48.05
2023-04-27T07:09:27.749Z,50.18
2023-04-27T07:11:29.785Z,52.65
2023-04-27T07:13:31.744Z,51.83
2023-04-27T07:15:33.351Z,50.54
2023-04-27T07:17:35.017Z,50.15
2023-04-27T07:19:37.032Z,48.31
2023-04-27T07:21:38.635Z,49.18
2023-04-27T07:23:43.672Z,49.01
2023-04-27T07:25:46.170Z,49.34
2023-04-27T07:27:47.865Z,47.41
2023-04-27T07:29:49.332Z,47.34
2023-04-27T07:31:52.726Z,48.72
2023-04-27T07:33:55.122Z,47.58
2023-04-27T07:35:56.745Z,46.50
2023-04-27T07:38:01.555Z,45.09
2023-04-27T07:40:10.908Z,45.07
2023-04-27T07:42:12.496Z,44.41
2023-04-27T07:44:15.060Z,44.68
2023-04-27T07:46:17.091Z,43.38
2023-04-27T07:48:19.511Z,44.51
2023-04-27T07:50:24.394Z,44.12
2023-04-27T07:52:26.171Z,45.25
2023-04-27T07:54:27.692Z,44.88
2023-04-27T07:56:29.369Z,43.19
2023-04-27T07:58:31.109Z,41.21
2023-04-27T08:00:32.815Z,40.41
2023-04-27T08:02:34.719Z,45.81
2023-04-27T08:04:37.012Z,45.78
2023-04-27T08:06:39.462Z,42.48
2023-04-27T08:08:41.714Z,41.20
2023-04-27T08:10:43.228Z,40.10
2023-04-27T08:12:44.905Z,38.03
2023-04-27T08:14:47.133Z,38.49
2023-04-27T08:16:48.885Z,40.80
2023-04-27T08:18:50.980Z,38.35
2023-04-27T08:20:52.875Z,39.03
2023-04-27T08:22:54.443Z,37.69
2023-04-27T08:24:56.501Z,37.20
2023-04-27T08:26:58.010Z,39.40
2023-04-27T08:28:59.905Z,39.33
2023-04-27T08:31:01.823Z,37.11
2023-04-27T08:33:03.524Z,38.42
2023-04-27T08:35:06.097Z,36.26
2023-04-27T08:37:08.486Z,37.39
2023-04-27T08:39:10.539Z,38.60
2023-04-27T08:41:21.955Z,39.19
2023-04-27T08:43:24.011Z,36.30
2023-04-27T08:45:27.098Z,35.88
2023-04-27T08:47:41.978Z,37.81
2023-04-27T08:49:44.816Z,36.16
2023-04-27T08:51:46.359Z,35.58
2023-04-27T08:53:52.902Z,34.85
2023-04-27T08:55:57.020Z,34.60
2023-04-27T08:57:58.840Z,31.73
2023-04-27T09:00:01.213Z,31.01
2023-04-27T09:02:04.143Z,34.69
2023-04-27T09:04:07.634Z,33.24
2023-04-27T09:06:09.372Z,35.94
2023-04-27T09:08:11.285Z,34.56
2023-04-27T09:10:12.857Z,33.78
2023-04-27T09:12:18.766Z,33.70
2023-04-27T09:14:22.580Z,34.42
2023-04-27T09:16:26.353Z,34.76
2023-04-27T09:18:28.834Z,32.98
2023-04-27T09:20:30.458Z,32.19
2023-04-27T09:22:32.233Z,34.26
2023-04-27T09:24:34.076Z,33.14
2023-04-27T09:26:37.634Z,33.89
2023-04-27T09:28:41.348Z,30.90
2023-04-27T09:31:01.053Z,34.25
2023-04-27T09:33:02.930Z,34.87
2023-04-27T09:35:17.822Z,35.59
2023-04-27T09:37:19.979Z,34.66
2023-04-27T09:39:22.139Z,34.54
2023-04-27T09:41:23.820Z,32.56
2023-04-27T09:43:27.427Z,32.98
2023-04-27T09:45:29.399Z,34.05
2023-04-27T09:47:32.912Z,33.01
2023-04-27T09:49:34.538Z,33.25
2023-04-27T09:51:36.158Z,33.52
2023-04-27T09:53:46.912Z,36.04
2023-04-27T09:56:11.717Z,33.83
2023-04-27T09:58:36.964Z,35.28
2023-04-27T10:01:01.525Z,35.64
2023-04-27T10:03:23.662Z,34.17
2023-04-27T10:05:38.158Z,35.31
2023-04-27T10:07:41.226Z,35.21
2023-04-27T10:09:48.706Z,34.07
2023-04-27T10:11:52.268Z,36.24
2023-04-27T10:13:55.456Z,36.29
2023-04-27T10:15:57.168Z,35.33
2023-04-27T10:18:05.799Z,37.06
2023-04-27T10:20:09.756Z,38.07
2023-04-27T10:22:11.545Z,35.97
2023-04-27T10:24:13.054Z,35.27
2023-04-27T10:26:25.504Z,37.17
2023-04-27T10:28:37.741Z,33.13
2023-04-27T10:30:45.492Z,33.54
2023-04-27T10:32:58.028Z,35.29
2023-04-27T10:35:07.444Z,34.55
2023-04-27T10:37:11.069Z,37.35
2023-04-27T10:39:27.492Z,35.49
2023-04-27T10:41:36.158Z,38.21
2023-04-27T10:43:37.777Z,38.79
2023-04-27T10:45:40.372Z,38.29
2023-04-27T10:47:43.927Z,37.27
2023-04-27T10:49:45.850Z,37.28
2023-04-27T10:51:50.076Z,35.80
2023-04-27T10:53:54.453Z,35.46
2023-04-27T10:55:56.585Z,34.21
2023-04-27T10:57:59.037Z,35.68
2023-04-27T11:00:00.644Z,32.08
2023-04-27T11:02:03.104Z,34.35
2023-04-27T11:04:05.370Z,34.47
2023-04-27T11:06:07.313Z,34.41
2023-04-27T11:08:10.609Z,35.86
2023-04-27T11:10:15.894Z,34.35
2023-04-27T11:12:18.466Z,34.51
2023-04-27T11:14:21.390Z,34.18
2023-04-27T11:16:23.006Z,32.80
2023-04-27T11:18:31.819Z,34.16
2023-04-27T11:20:33.363Z,31.50
2023-04-27T11:22:44.291Z,30.88
2023-04-27T11:24:50.386Z,33.00
2023-04-27T11:26:53.643Z,30.97
2023-04-27T11:28:59.625Z,32.88
2023-04-27T11:31:01.243Z,32.18
2023-04-27T11:33:08.470Z,31.24
2023-04-27T11:35:10.666Z,31.18
2023-04-27T11:37:25.213Z,32.15
2023-04-27T11:39:29.017Z,29.77
2023-04-27T11:41:37.377Z,31.54
2023-04-27T11:43:43.450Z,32.34
2023-04-27T11:45:45.205Z,32.11
2023-04-27T11:47:47.456Z,33.32
2023-04-27T11:49:52.834Z,30.20
2023-04-27T11:51:57.466Z,30.58
2023-04-27T11:54:06.871Z,30.65
2023-04-27T11:56:10.880Z,31.07
2023-04-27T11:58:16.119Z,32.83
2023-04-27T12:00:18.663Z,31.73
2023-04-27T12:02:23.727Z,29.85
2023-04-27T12:04:26.425Z,30.11
2023-04-27T12:06:33.061Z,30.80
2023-04-27T12:08:35.030Z,31.18
2023-04-27T12:10:36.600Z,31.86
2023-04-27T12:12:38.654Z,29.33
2023-04-27T12:14:40.509Z,30.94
2023-04-27T12:16:42.147Z,42.09
2023-04-27T12:18:44.120Z,33.29
2023-04-27T12:20:46.335Z,33.29
2023-04-27T12:22:48.284Z,30.65
2023-04-27T12:24:53.486Z,33.65
2023-04-27T12:26:55.629Z,28.55
2023-04-27T12:28:57.454Z,30.22
2023-04-27T12:31:00.209Z,28.82
2023-04-27T12:33:04.390Z,27.77
2023-04-27T12:35:10.314Z,35.04
2023-04-27T12:37:12.360Z,32.99
2023-04-27T12:39:15.704Z,28.09
2023-04-27T12:41:17.295Z,29.56
2023-04-27T12:43:18.954Z,25.07
2023-04-27T12:45:21.032Z,28.55
2023-04-27T12:47:45.894Z,26.41
2023-04-27T12:49:45.192Z,28.45
2023-04-27T12:51:47.985Z,26.61
2023-04-27T12:53:49.985Z,25.09
2023-04-27T12:55:51.741Z,30.18
2023-04-27T12:57:53.346Z,29.54
2023-04-27T12:59:55.103Z,27.95
2023-04-27T13:01:56.756Z,28.03
2023-04-27T13:06:02.870Z,27.53
2023-04-27T13:08:05.547Z,28.55
2023-04-27T13:10:07.669Z,26.49
2023-04-27T13:12:09.216Z,24.96
2023-04-27T13:14:13.146Z,26.42
2023-04-27T13:16:15.953Z,25.75
2023-04-27T13:18:17.629Z,23.82
2023-04-27T13:20:19.498Z,24.37
2023-04-27T13:22:21.823Z,25.27
2023-04-27T13:24:24.571Z,29.70
2023-04-27T13:26:26.153Z,29.35
2023-04-27T13:28:27.965Z,28.13
2023-04-27T13:30:30.670Z,26.28
2023-04-27T13:32:32.470Z,26.75
2023-04-27T13:34:34.392Z,26.11
2023-04-27T13:36:36.331Z,26.46
2023-04-27T13:38:37.928Z,28.04
2023-04-27T13:40:39.807Z,28.40
2023-04-27T13:42:41.625Z,23.62
2023-04-27T13:44:43.856Z,25.39
2023-04-27T13:46:45.710Z,24.36
2023-04-27T13:48:47.333Z,28.01
2023-04-27T13:50:48.916Z,24.58
2023-04-27T13:52:50.588Z,22.55
2023-04-27T13:54:52.560Z,22.76
2023-04-27T13:56:54.247Z,23.27
2023-04-27T13:58:56.064Z,23.13
2023-04-27T14:00:58.388Z,22.83
2023-04-27T14:03:04.347Z,25.56
2023-04-27T14:05:07.015Z,25.24
2023-04-27T14:07:08.650Z,23.86
2023-04-27T14:09:10.655Z,25.46
2023-04-27T14:11:13.149Z,22.55
2023-04-27T14:13:15.188Z,25.46
2023-04-27T14:15:17.366Z,27.20
2023-04-27T14:17:19.345Z,25.71
2023-04-27T14:19:20.957Z,27.63
2023-04-27T14:21:22.652Z,23.32
2023-04-27T14:23:24.276Z,26.84
2023-04-27T14:25:27.140Z,26.35
2023-04-27T14:27:29.532Z,24.27
2023-04-27T14:29:31.529Z,24.77
2023-04-27T14:31:33.324Z,22.52
2023-04-27T14:33:35.247Z,22.11
2023-04-27T14:35:38.206Z,21.08
2023-04-27T14:37:40.354Z,20.76
2023-04-27T14:39:45.023Z,22.30
2023-04-27T14:41:46.896Z,22.97
2023-04-27T14:43:48.823Z,20.87
2023-04-27T14:45:54.179Z,21.11
2023-04-27T14:48:01.422Z,21.00
2023-04-27T14:50:03.444Z,19.58
2023-04-27T14:52:06.525Z,19.73
2023-04-27T14:54:09.509Z,19.83
2023-04-27T14:56:11.950Z,22.05
2023-04-27T14:58:14.132Z,21.77
2023-04-27T15:00:16.245Z,21.04
2023-04-27T15:02:18.983Z,22.84
2023-04-27T15:04:20.781Z,21.78
2023-04-27T15:06:24.011Z,25.67
2023-04-27T15:08:25.798Z,24.44
2023-04-27T15:10:27.487Z,25.58
2023-04-27T15:12:29.216Z,24.97
2023-04-27T15:14:31.346Z,23.55
2023-04-27T15:16:32.921Z,25.53
2023-04-27T15:18:35.233Z,24.95
2023-04-27T15:20:36.745Z,26.49
2023-04-27T15:22:38.315Z,24.95
2023-04-27T15:24:40.352Z,25.67
2023-04-27T15:26:41.924Z,26.59
2023-04-27T15:28:43.976Z,24.86
2023-04-27T15:30:46.028Z,23.04
2023-04-27T15:32:47.920Z,22.79
2023-04-27T15:34:49.867Z,24.89
2023-04-27T15:36:52.759Z,24.04
2023-04-27T15:38:54.648Z,24.66
2023-04-27T15:40:56.114Z,25.52
2023-04-27T15:42:59.051Z,24.85
2023-04-27T15:45:00.879Z,25.22
2023-04-27T15:47:02.532Z,26.72
2023-04-27T15:49:04.315Z,27.78
2023-04-27T15:51:09.477Z,27.24
2023-04-27T15:53:11.965Z,28.19
2023-04-27T15:55:14.127Z,26.45
2023-04-27T15:57:15.785Z,29.02
2023-04-27T15:59:18.549Z,28.80
2023-04-27T16:01:20.392Z,27.16
2023-04-27T16:03:22.000Z,30.96
2023-04-27T16:05:23.688Z,30.51
2023-04-27T16:07:25.289Z,29.27
2023-04-27T16:09:27.198Z,30.38
2023-04-27T16:11:30.515Z,30.87
2023-04-27T16:13:32.615Z,30.58
2023-04-27T16:15:34.218Z,32.72
2023-04-27T16:17:36.093Z,33.01
2023-04-27T16:19:37.664Z,31.42
2023-04-27T16:21:39.257Z,30.71
2023-04-27T16:23:40.859Z,30.51
2023-04-27T16:25:42.802Z,32.18
2023-04-27T16:27:44.454Z,32.88
2023-04-27T16:29:47.000Z,33.20
2023-04-27T16:31:53.213Z,32.94
2023-04-27T16:33:55.035Z,33.44
2023-04-27T16:35:57.214Z,33.62
2023-04-27T16:37:59.010Z,32.78
2023-04-27T16:40:03.786Z,34.81
2023-04-27T16:42:05.641Z,32.59
2023-04-27T16:44:07.510Z,33.32
2023-04-27T16:46:10.572Z,34.05
2023-04-27T16:48:12.521Z,31.95
2023-04-27T16:50:14.512Z,33.47
2023-04-27T16:52:17.046Z,32.80
2023-04-27T16:54:19.513Z,32.40
2023-04-27T16:56:28.894Z,31.94
2023-04-27T16:58:30.803Z,29.79
2023-04-27T17:00:32.433Z,29.29
2023-04-27T17:02:34.120Z,31.06
2023-04-27T17:04:39.884Z,33.12
2023-04-27T17:06:41.963Z,32.40
2023-04-27T17:08:44.003Z,32.98
2023-04-27T17:10:45.966Z,32.82
2023-04-27T17:12:47.772Z,33.37
2023-04-27T17:14:49.289Z,31.70
2023-04-27T17:16:50.789Z,31.88
2023-04-27T17:18:52.412Z,33.25
2023-04-27T17:20:53.931Z,33.15
2023-04-27T17:22:55.649Z,32.42
2023-04-27T17:24:57.825Z,34.97
2023-04-27T17:26:59.346Z,34.83
2023-04-27T17:29:01.477Z,35.84
2023-04-27T17:31:03.525Z,35.78
2023-04-27T17:33:05.807Z,36.23
2023-04-27T17:35:07.771Z,37.28
2023-04-27T17:37:09.352Z,35.16
2023-04-27T17:39:12.912Z,36.53
2023-04-27T17:41:14.728Z,39.32
2023-04-27T17:43:16.297Z,38.61
2023-04-27T17:45:17.831Z,41.50
2023-04-27T17:47:22.089Z,41.32
2023-04-27T17:49:23.608Z,39.66
2023-04-27T17:51:25.264Z,41.70
2023-04-27T17:53:27.400Z,44.65
2023-04-27T17:55:29.072Z,46.23
2023-04-27T17:57:30.846Z,45.75
2023-04-27T17:59:32.402Z,49.58
2023-04-27T18:01:34.235Z,49.13
2023-04-27T18:03:36.346Z,49.63
2023-04-27T18:05:37.952Z,50.27
2023-04-27T18:07:39.518Z,50.35
2023-04-27T18:09:41.526Z,50.50
2023-04-27T18:11:43.033Z,50.75
2023-04-27T18:13:45.389Z,50.23
2023-04-27T18:15:46.935Z,50.75
2023-04-27T18:17:48.610Z,51.13
2023-04-27T18:20:00.936Z,51.96
2023-04-27T18:22:09.828Z,52.24
2023-04-27T18:24:11.594Z,52.86
2023-04-27T18:26:13.333Z,53.43
2023-04-27T18:28:15.130Z,52.42
2023-04-27T18:30:16.764Z,52.18
2023-04-27T18:32:18.647Z,52.92
2023-04-27T18:34:20.371Z,53.30
2023-04-27T18:36:21.916Z,51.49
2023-04-27T18:38:23.618Z,52.42
2023-04-27T18:40:25.956Z,53.25
2023-04-27T18:42:27.472Z,54.15
2023-04-27T18:44:28.962Z,55.66
2023-04-27T18:46:30.685Z,56.27
2023-04-27T18:48:32.434Z,56.06
2023-04-27T18:50:34.470Z,56.09
2023-04-27T18:52:36.070Z,57.43
2023-04-27T18:54:38.605Z,59.14
2023-04-27T18:56:40.179Z,59.70
2023-04-27T18:58:41.876Z,60.24
2023-04-27T19:00:43.519Z,59.20
2023-04-27T19:02:45.382Z,58.43
2023-04-27T19:04:56.839Z,58.00
2023-04-27T19:06:58.799Z,59.26
2023-04-27T19:09:00.754Z,59.68
2023-04-27T19:11:02.524Z,59.54
2023-04-27T19:13:04.072Z,60.06
2023-04-27T19:15:06.705Z,59.49
2023-04-27T19:17:08.425Z,59.52
2023-04-27T19:19:10.050Z,60.09
2023-04-27T19:21:11.691Z,60.86
2023-04-27T19:23:13.566Z,60.48
2023-04-27T19:25:15.620Z,60.15
2023-04-27T19:27:17.695Z,60.98
2023-04-27T19:29:23.459Z,60.89
2023-04-27T19:31:25.062Z,60.64
2023-04-27T19:33:26.949Z,60.45
2023-04-27T19:35:30.134Z,59.95
2023-04-27T19:37:31.701Z,60.14
2023-04-27T19:39:34.509Z,60.23
2023-04-27T19:41:36.329Z,61.48
2023-04-27T19:43:37.894Z,61.29
2023-04-27T19:45:41.750Z,61.13
2023-04-27T19:47:43.732Z,61.16
2023-04-27T19:49:45.577Z,61.11
2023-04-27T19:51:47.194Z,62.86
2023-04-27T19:53:48.840Z,62.49
2023-04-27T19:55:51.538Z,62.71
2023-04-27T19:57:53.229Z,62.82
2023-04-27T19:59:54.881Z,62.71
2023-04-27T20:01:56.457Z,62.80
2023-04-27T20:03:58.073Z,64.77
2023-04-27T20:06:00.379Z,66.43
2023-04-27T20:08:02.128Z,65.92
2023-04-27T20:14:33.561Z,65.82
2023-04-27T20:16:35.303Z,65.93
2023-04-27T20:18:37.864Z,65.83
2023-04-27T20:20:41.788Z,65.88
2023-04-27T20:22:43.365Z,67.22
2023-04-27T20:24:45.480Z,68.45
2023-04-27T20:26:47.016Z,68.08
2023-04-27T20:28:48.972Z,67.99
2023-04-27T20:30:50.800Z,67.94
2023-04-27T20:32:52.452Z,67.92
2023-04-27T20:34:53.984Z,68.44
2023-04-27T20:36:57.848Z,68.60
2023-04-27T20:39:05.412Z,68.76
2023-04-27T20:41:06.908Z,69.53
2023-04-27T20:43:08.753Z,70.38
2023-04-27T20:45:11.788Z,69.83
2023-04-27T20:47:14.914Z,70.05
2023-04-27T20:49:24.647Z,70.30
2023-04-27T20:51:33.608Z,70.43
2023-04-27T20:53:35.180Z,71.38
2023-04-27T20:55:37.016Z,72.56
2023-04-27T20:57:38.668Z,73.66
2023-04-27T20:59:41.154Z,74.16
2023-04-27T21:01:42.797Z,73.10
2023-04-27T21:03:45.385Z,72.42
2023-04-27T21:05:49.120Z,72.52
2023-04-27T21:07:50.838Z,72.89
2023-04-27T21:09:52.374Z,73.36
2023-04-27T21:11:54.198Z,73.62
2023-04-27T21:13:56.194Z,73.33
2023-04-27T21:15:57.765Z,73.08
2023-04-27T21:18:00.417Z,73.36
2023-04-27T21:20:02.178Z,73.03
2023-04-27T21:22:03.719Z,72.22
2023-04-27T21:24:19.594Z,73.06
2023-04-27T21:26:21.327Z,72.34
2023-04-27T21:28:22.837Z,73.14
2023-04-27T21:30:24.480Z,73.11
2023-04-27T21:32:26.037Z,72.90
2023-04-27T21:34:27.671Z,73.09
2023-04-27T21:36:30.172Z,73.47
2023-04-27T21:38:31.733Z,72.75
2023-04-27T21:40:33.266Z,73.27
2023-04-27T21:42:34.804Z,72.55
2023-04-27T21:44:36.387Z,72.97
2023-04-27T21:46:38.431Z,73.40
2023-04-27T21:48:40.301Z,72.93
2023-04-27T21:50:42.370Z,72.74
2023-04-27T21:52:43.984Z,73.10
2023-04-27T21:54:46.229Z,72.88
2023-04-27T21:56:47.813Z,73.25
2023-04-27T21:58:49.927Z,73.42
2023-04-27T22:00:52.215Z,74.85
2023-04-27T22:02:54.028Z,74.57
2023-04-27T22:04:56.447Z,74.85
2023-04-27T22:06:58.144Z,75.90
2023-04-27T22:09:03.517Z,75.34
2023-04-27T22:11:06.232Z,75.69
2023-04-27T22:13:18.786Z,76.10
2023-04-27T22:15:21.225Z,75.72
2023-04-27T22:17:22.844Z,75.40
2023-04-27T22:19:28.514Z,75.68
2023-04-27T22:21:30.232Z,76.03
2023-04-27T22:23:32.003Z,76.75
2023-04-27T22:25:33.784Z,76.35
2023-04-27T22:27:44.145Z,76.10
2023-04-27T22:29:46.725Z,76.71
2023-04-27T22:31:48.706Z,75.63
2023-04-27T22:33:50.392Z,73.97
2023-04-27T22:35:52.424Z,74.09
2023-04-27T22:37:58.825Z,74.55
2023-04-27T22:40:01.059Z,73.65
2023-04-27T22:42:02.823Z,74.29
2023-04-27T22:44:04.805Z,76.04
2023-04-27T22:46:06.369Z,75.64
2023-04-27T22:48:08.075Z,75.25
2023-04-27T22:50:11.107Z,75.28
2023-04-27T22:52:12.714Z,74.70
2023-04-27T22:54:14.742Z,74.66
2023-04-27T22:56:19.822Z,75.38
2023-04-27T22:58:21.703Z,75.23
2023-04-27T23:00:23.422Z,75.42
2023-04-27T23:02:25.356Z,74.48
2023-04-27T23:04:27.502Z,74.62
2023-04-27T23:06:30.205Z,73.87
2023-04-27T23:08:31.707Z,73.60
2023-04-27T23:10:35.254Z,73.01
2023-04-27T23:12:38.613Z,73.20
2023-04-27T23:14:41.884Z,71.72
2023-04-27T23:16:47.452Z,70.33
2023-04-27T23:18:49.392Z,70.46
2023-04-27T23:20:57.323Z,67.52
2023-04-27T23:22:58.830Z,66.42
2023-04-27T23:25:00.484Z,64.30
2023-04-27T23:27:02.543Z,65.11
2023-04-27T23:29:04.575Z,63.71
2023-04-27T23:31:06.874Z,63.95
2023-04-27T23:33:08.412Z,63.73
2023-04-27T23:35:10.095Z,65.02
2023-04-27T23:37:12.586Z,65.44
2023-04-27T23:39:13.994Z,63.87
2023-04-27T23:41:15.765Z,64.31
2023-04-27T23:43:17.589Z,66.10
2023-04-27T23:45:19.632Z,65.19
2023-04-27T23:47:21.330Z,64.84
2023-04-27T23:49:22.850Z,64.34
2023-04-27T23:51:24.476Z,64.20
2023-04-27T23:53:26.456Z,62.48
2023-04-27T23:55:27.912Z,62.12
2023-04-27T23:57:29.603Z,60.72
2023-04-27T23:59:35.360Z,58.82
